createdAt,value
2019-01-06T00:00:00.615Z,101529.36
2019-01-06T02:26:45.142Z,101647.05
2019-01-06T02:29:33.543Z,101644.48
2019-01-06T02:32:22.221Z,101647.58
2019-01-06T02:35:37.204Z,101647.16
2019-01-06T02:38:37.566Z,101645.48
2019-01-06T09:42:38.257Z,101900.02
2019-01-06T14:59:38.204Z,101911.88
2019-01-06T16:47:13.369Z,101953.09
2019-01-06T16:50:19.541Z,101949.48
2019-01-06T16:53:26.190Z,101952.50
2019-01-06T17:09:11.369Z,101944.45
2019-01-06T19:20:27.788Z,101953.66
2019-01-06T19:23:18.098Z,101962.02
2019-01-06T19:26:23.063Z,101964.22
2019-01-06T19:29:31.378Z,101958.55
2019-01-06T19:32:37.687Z,101952.36
2019-01-06T19:35:42.971Z,101952.14
2019-01-06T19:38:50.349Z,101951.82
2019-01-06T19:41:57.203Z,101949.96
2019-01-06T19:44:45.087Z,101953.34
2019-01-06T19:47:47.387Z,101955.63
2019-01-06T19:50:53.708Z,101961.83
2019-01-06T19:54:08.243Z,101948.33
2019-01-06T19:57:14.493Z,101958.42
2019-01-06T20:00:22.193Z,101959.37
2019-01-06T20:06:48.082Z,101961.61
2019-01-06T20:09:58.730Z,101959.89
2019-01-06T20:12:49.299Z,101958.63
2019-01-06T20:16:04.386Z,101958.24
2019-01-06T20:19:15.323Z,101965.79
2019-01-06T20:22:29.009Z,101966.41
2019-01-06T20:25:25.063Z,101967.45
2019-01-06T20:28:22.383Z,101967.94
2019-01-06T20:31:32.477Z,101967.52
2019-01-06T20:34:24.120Z,101970.60
2019-01-06T20:37:33.390Z,101965.36
2019-01-06T20:40:21.055Z,101972.39
2019-01-06T20:43:21.841Z,101969.80
2019-01-06T20:46:31.046Z,101968.08
2019-01-06T20:49:32.867Z,101972.00
2019-01-06T20:52:41.636Z,101964.56
2019-01-06T20:55:29.695Z,101968.09
2019-01-06T20:58:29.606Z,101972.06
2019-01-06T21:01:38.584Z,101974.70
2019-01-06T21:04:52.361Z,101971.66
2019-01-06T21:07:49.987Z,101975.13
2019-01-06T21:10:49.841Z,101972.06
2019-01-06T21:14:08.167Z,101973.38
2019-01-06T21:17:11.495Z,101969.44
2019-01-06T21:20:06.239Z,101970.31
2019-01-06T21:26:29.912Z,101978.17
2019-01-06T21:29:21.852Z,101975.55
2019-01-06T21:32:28.546Z,101976.85
2019-01-06T21:35:35.382Z,101978.25
2019-01-06T21:41:58.704Z,101970.56
2019-01-06T21:44:53.155Z,101970.58
2019-01-06T21:47:52.489Z,101962.30
2019-01-06T21:51:01.747Z,101958.35
2019-01-06T21:53:51.902Z,101961.42
2019-01-06T21:56:48.236Z,101954.88
2019-01-06T21:59:41.319Z,101957.96
2019-01-06T22:02:41.006Z,101963.64
2019-01-06T22:05:28.699Z,101955.83
2019-01-06T22:08:35.586Z,101959.45
2019-01-06T22:11:32.764Z,101956.95
2019-01-06T22:14:27.883Z,101958.29
2019-01-06T22:17:35.426Z,101951.78
2019-01-06T22:20:57.194Z,101953.99
2019-01-06T22:23:44.355Z,101949.63
2019-01-06T22:26:43.954Z,101950.07
2019-01-06T22:29:49.597Z,101940.47
2019-01-06T22:36:19.156Z,101935.70
2019-01-06T22:39:10.868Z,101938.34
2019-01-06T22:42:07.598Z,101939.27
2019-01-06T22:45:03.968Z,101931.86
2019-01-06T22:51:10.340Z,101932.74
2019-01-06T22:54:01.581Z,101939.72
2019-01-06T22:57:08.540Z,101935.34
2019-01-06T23:00:07.441Z,101934.90
2019-01-06T23:03:13.815Z,101943.66
2019-01-06T23:06:07.635Z,101937.53
2019-01-06T23:09:07.299Z,101941.45
2019-01-06T23:11:55.071Z,101941.00
2019-01-06T23:14:42.080Z,101940.12
2019-01-06T23:17:32.224Z,101938.80
2019-01-06T23:20:24.650Z,101937.48
2019-01-06T23:23:12.972Z,101940.10
2019-01-06T23:26:02.815Z,101930.47
2019-01-06T23:39:03.618Z,101958.00
2019-01-06T23:41:51.559Z,101947.94
2019-01-06T23:44:42.979Z,101954.08
2019-01-06T23:47:59.172Z,101949.70
2019-01-06T23:50:46.504Z,101954.07
2019-01-06T23:53:33.977Z,101946.18
2019-01-06T23:56:27.090Z,101946.17
2019-01-06T23:59:16.848Z,101952.73
